sensor_id;sensor_type;location;lat;lon;timestamp;pressure;altitude;pressure_sealevel;temperature;humidity
39487;BME280;25173;50.430;18.926;2022-10-26T00:01:15;98593.34;;;13.46;74.19
39487;BME280;25173;50.430;18.926;2022-10-26T00:04:15;98594.41;;;13.50;73.68
39487;BME280;25173;50.430;18.926;2022-10-26T00:07:16;98598.25;;;13.49;72.85
39487;BME280;25173;50.430;18.926;2022-10-26T00:10:17;98599.38;;;13.43;72.54
39487;BME280;25173;50.430;18.926;2022-10-26T00:13:21;98596.69;;;13.38;72.69
39487;BME280;25173;50.430;18.926;2022-10-26T00:16:24;98604.34;;;13.36;72.56
39487;BME280;25173;50.430;18.926;2022-10-26T00:19:25;98604.09;;;13.33;72.68
39487;BME280;25173;50.430;18.926;2022-10-26T00:22:26;98619.19;;;13.25;72.71
39487;BME280;25173;50.430;18.926;2022-10-26T00:25:26;98605.81;;;13.13;72.64
39487;BME280;25173;50.430;18.926;2022-10-26T00:28:27;98606.91;;;13.07;72.88
39487;BME280;25173;50.430;18.926;2022-10-26T00:31:28;98612.91;;;13.04;72.79
39487;BME280;25173;50.430;18.926;2022-10-26T00:34:29;98611.03;;;13.00;72.58
39487;BME280;25173;50.430;18.926;2022-10-26T00:37:29;98603.91;;;12.99;72.46
39487;BME280;25173;50.430;18.926;2022-10-26T00:40:30;98603.41;;;12.97;72.45
39487;BME280;25173;50.430;18.926;2022-10-26T00:46:34;98602.06;;;12.79;72.68
39487;BME280;25173;50.430;18.926;2022-10-26T00:49:37;98598.00;;;12.71;72.65
39487;BME280;25173;50.430;18.926;2022-10-26T00:52:38;98596.91;;;12.67;72.76
39487;BME280;25173;50.430;18.926;2022-10-26T00:55:43;98604.03;;;12.63;72.76
39487;BME280;25173;50.430;18.926;2022-10-26T00:58:45;98607.59;;;12.59;73.13
39487;BME280;25173;50.430;18.926;2022-10-26T01:01:48;98601.31;;;12.53;73.23
39487;BME280;25173;50.430;18.926;2022-10-26T01:04:48;98598.31;;;12.50;73.32
39487;BME280;25173;50.430;18.926;2022-10-26T01:07:50;98605.97;;;12.48;73.37
39487;BME280;25173;50.430;18.926;2022-10-26T01:10:51;98601.59;;;12.47;73.17
39487;BME280;25173;50.430;18.926;2022-10-26T01:13:52;98602.13;;;12.49;73.23
39487;BME280;25173;50.430;18.926;2022-10-26T01:17:03;98602.41;;;12.52;73.04
39487;BME280;25173;50.430;18.926;2022-10-26T01:20:20;98602.94;;;12.54;72.81
39487;BME280;25173;50.430;18.926;2022-10-26T01:27:13;98602.69;;;12.45;72.50
39487;BME280;25173;50.430;18.926;2022-10-26T01:30:18;98602.44;;;12.42;72.58
39487;BME280;25173;50.430;18.926;2022-10-26T01:33:38;98604.34;;;12.36;72.48
39487;BME280;25173;50.430;18.926;2022-10-26T01:36:49;98600.78;;;12.26;72.57
39487;BME280;25173;50.430;18.926;2022-10-26T01:39:54;98600.25;;;12.14;72.18
39487;BME280;25173;50.430;18.926;2022-10-26T01:43:03;98609.25;;;12.04;72.21
39487;BME280;25173;50.430;18.926;2022-10-26T01:46:06;98609.25;;;11.94;72.54
39487;BME280;25173;50.430;18.926;2022-10-26T01:49:11;98607.09;;;11.91;72.34
39487;BME280;25173;50.430;18.926;2022-10-26T01:52:17;98608.16;;;11.90;72.08
39487;BME280;25173;50.430;18.926;2022-10-26T01:59:16;98614.44;;;11.85;72.11
39487;BME280;25173;50.430;18.926;2022-10-26T02:02:37;98607.63;;;11.83;71.86
39487;BME280;25173;50.430;18.926;2022-10-26T02:05:55;98606.78;;;11.77;72.03
39487;BME280;25173;50.430;18.926;2022-10-26T02:09:33;98603.75;;;11.74;72.55
39487;BME280;25173;50.430;18.926;2022-10-26T02:12:44;98603.75;;;11.68;72.90
39487;BME280;25173;50.430;18.926;2022-10-26T02:22:33;98606.44;;;11.63;72.87
39487;BME280;25173;50.430;18.926;2022-10-26T02:25:39;98604.00;;;11.67;72.68
39487;BME280;25173;50.430;18.926;2022-10-26T02:28:45;98605.66;;;11.68;72.70
39487;BME280;25173;50.430;18.926;2022-10-26T02:31:48;98606.44;;;11.63;72.55
39487;BME280;25173;50.430;18.926;2022-10-26T02:34:51;98608.38;;;11.63;72.96
39487;BME280;25173;50.430;18.926;2022-10-26T02:37:55;98612.72;;;11.64;73.17
39487;BME280;25173;50.430;18.926;2022-10-26T02:40:56;98607.00;;;11.65;73.32
39487;BME280;25173;50.430;18.926;2022-10-26T02:44:09;98613.28;;;11.66;73.44
39487;BME280;25173;50.430;18.926;2022-10-26T02:47:12;98610.00;;;11.64;73.20
39487;BME280;25173;50.430;18.926;2022-10-26T02:50:12;98617.91;;;11.65;72.52
39487;BME280;25173;50.430;18.926;2022-10-26T02:53:20;98620.66;;;11.65;72.28
39487;BME280;25173;50.430;18.926;2022-10-26T02:56:28;98623.63;;;11.64;72.12
39487;BME280;25173;50.430;18.926;2022-10-26T02:59:34;98614.38;;;11.55;72.30
39487;BME280;25173;50.430;18.926;2022-10-26T03:02:35;98625.25;;;11.50;72.15
39487;BME280;25173;50.430;18.926;2022-10-26T03:05:40;98631.50;;;11.45;72.01
39487;BME280;25173;50.430;18.926;2022-10-26T03:08:41;98626.31;;;11.34;71.77
39487;BME280;25173;50.430;18.926;2022-10-26T03:11:42;98626.25;;;11.23;72.18
39487;BME280;25173;50.430;18.926;2022-10-26T03:14:42;98632.78;;;11.22;71.98
39487;BME280;25173;50.430;18.926;2022-10-26T03:17:43;98630.88;;;11.18;72.05
39487;BME280;25173;50.430;18.926;2022-10-26T03:20:44;98620.22;;;11.11;71.83
39487;BME280;25173;50.430;18.926;2022-10-26T03:23:45;98624.03;;;11.10;71.83
39487;BME280;25173;50.430;18.926;2022-10-26T03:26:47;98630.00;;;11.07;71.42
39487;BME280;25173;50.430;18.926;2022-10-26T03:29:47;98626.72;;;11.05;71.22
39487;BME280;25173;50.430;18.926;2022-10-26T03:32:48;98625.34;;;11.03;71.01
39487;BME280;25173;50.430;18.926;2022-10-26T03:35:55;98634.63;;;11.02;70.85
39487;BME280;25173;50.430;18.926;2022-10-26T03:38:59;98628.03;;;10.98;70.92
39487;BME280;25173;50.430;18.926;2022-10-26T03:41:59;98633.22;;;10.94;70.83
39487;BME280;25173;50.430;18.926;2022-10-26T03:45:00;98635.09;;;10.88;70.73
39487;BME280;25173;50.430;18.926;2022-10-26T03:48:01;98631.50;;;10.83;70.89
39487;BME280;25173;50.430;18.926;2022-10-26T03:51:01;98641.88;;;10.81;71.19
39487;BME280;25173;50.430;18.926;2022-10-26T03:54:02;98634.22;;;10.83;71.40
39487;BME280;25173;50.430;18.926;2022-10-26T03:57:03;98639.72;;;10.88;71.36
39487;BME280;25173;50.430;18.926;2022-10-26T04:00:04;98626.63;;;10.90;71.26
39487;BME280;25173;50.430;18.926;2022-10-26T04:03:12;98635.38;;;10.92;71.13
39487;BME280;25173;50.430;18.926;2022-10-26T04:06:13;98638.66;;;10.89;70.94
39487;BME280;25173;50.430;18.926;2022-10-26T04:09:13;98634.78;;;10.85;70.55
39487;BME280;25173;50.430;18.926;2022-10-26T04:12:14;98639.97;;;10.81;70.35
39487;BME280;25173;50.430;18.926;2022-10-26T04:15:14;98643.44;;;10.72;70.42
39487;BME280;25173;50.430;18.926;2022-10-26T04:18:15;98647.22;;;10.66;70.41
39487;BME280;25173;50.430;18.926;2022-10-26T04:21:16;98639.53;;;10.58;70.66
39487;BME280;25173;50.430;18.926;2022-10-26T04:24:17;98640.03;;;10.49;70.74
39487;BME280;25173;50.430;18.926;2022-10-26T04:27:18;98645.44;;;10.44;70.99
39487;BME280;25173;50.430;18.926;2022-10-26T04:30:18;98648.16;;;10.44;70.83
39487;BME280;25173;50.430;18.926;2022-10-26T04:33:19;98647.34;;;10.44;70.63
39487;BME280;25173;50.430;18.926;2022-10-26T04:36:20;98642.16;;;10.42;70.62
39487;BME280;25173;50.430;18.926;2022-10-26T04:39:20;98644.31;;;10.40;70.21
39487;BME280;25173;50.430;18.926;2022-10-26T04:42:21;98642.13;;;10.37;70.50
39487;BME280;25173;50.430;18.926;2022-10-26T04:45:21;98644.84;;;10.37;70.30
39487;BME280;25173;50.430;18.926;2022-10-26T04:48:23;98639.66;;;10.36;70.07
39487;BME280;25173;50.430;18.926;2022-10-26T04:51:25;98633.38;;;10.35;70.38
39487;BME280;25173;50.430;18.926;2022-10-26T04:54:25;98637.44;;;10.33;70.46
39487;BME280;25173;50.430;18.926;2022-10-26T04:57:26;98641.50;;;10.30;70.57
39487;BME280;25173;50.430;18.926;2022-10-26T05:00:27;98646.41;;;10.28;70.27
39487;BME280;25173;50.430;18.926;2022-10-26T05:03:29;98649.06;;;10.23;70.12
39487;BME280;25173;50.430;18.926;2022-10-26T05:06:30;98644.16;;;10.20;69.86
39487;BME280;25173;50.430;18.926;2022-10-26T05:09:30;98645.16;;;10.14;69.85
39487;BME280;25173;50.430;18.926;2022-10-26T05:12:31;98654.91;;;10.10;69.66
39487;BME280;25173;50.430;18.926;2022-10-26T05:15:32;98652.97;;;10.05;69.46
39487;BME280;25173;50.430;18.926;2022-10-26T05:18:32;98655.38;;;10.02;69.71
39487;BME280;25173;50.430;18.926;2022-10-26T05:21:33;98659.97;;;9.96;69.94
39487;BME280;25173;50.430;18.926;2022-10-26T05:24:33;98653.13;;;9.94;70.48
39487;BME280;25173;50.430;18.926;2022-10-26T05:27:34;98656.66;;;9.94;70.73
39487;BME280;25173;50.430;18.926;2022-10-26T05:30:35;98658.31;;;9.95;70.67
39487;BME280;25173;50.430;18.926;2022-10-26T05:33:35;98661.06;;;10.00;70.01
39487;BME280;25173;50.430;18.926;2022-10-26T05:36:36;98660.81;;;10.02;69.78
39487;BME280;25173;50.430;18.926;2022-10-26T05:39:36;98655.94;;;10.04;69.73
39487;BME280;25173;50.430;18.926;2022-10-26T05:42:37;98664.13;;;10.04;69.69
39487;BME280;25173;50.430;18.926;2022-10-26T05:45:38;98666.00;;;10.03;69.57
39487;BME280;25173;50.430;18.926;2022-10-26T05:48:38;98671.72;;;10.02;69.51
39487;BME280;25173;50.430;18.926;2022-10-26T05:51:39;98671.16;;;10.00;69.43
39487;BME280;25173;50.430;18.926;2022-10-26T05:54:40;98674.38;;;9.97;69.75
39487;BME280;25173;50.430;18.926;2022-10-26T05:57:41;98670.72;;;9.86;69.67
39487;BME280;25173;50.430;18.926;2022-10-26T06:04:29;98683.31;;;9.65;70.34
39487;BME280;25173;50.430;18.926;2022-10-26T06:07:32;98683.50;;;9.59;70.71
39487;BME280;25173;50.430;18.926;2022-10-26T06:10:33;98693.59;;;9.63;70.97
39487;BME280;25173;50.430;18.926;2022-10-26T06:13:34;98699.69;;;9.70;70.90
39487;BME280;25173;50.430;18.926;2022-10-26T06:23:31;98696.78;;;10.04;71.17
39487;BME280;25173;50.430;18.926;2022-10-26T06:30:21;98700.75;;;10.18;71.57
39487;BME280;25173;50.430;18.926;2022-10-26T06:33:23;98700.03;;;10.28;71.82
39487;BME280;25173;50.430;18.926;2022-10-26T06:36:25;98708.56;;;10.41;72.01
39487;BME280;25173;50.430;18.926;2022-10-26T06:39:28;98697.78;;;10.52;72.07
39487;BME280;25173;50.430;18.926;2022-10-26T06:42:31;98700.88;;;10.65;72.18
39487;BME280;25173;50.430;18.926;2022-10-26T06:45:32;98712.94;;;10.74;71.94
39487;BME280;25173;50.430;18.926;2022-10-26T06:48:43;98710.81;;;10.86;72.06
39487;BME280;25173;50.430;18.926;2022-10-26T06:54:58;98720.78;;;11.08;72.22
39487;BME280;25173;50.430;18.926;2022-10-26T06:57:58;98715.94;;;11.20;72.16
39487;BME280;25173;50.430;18.926;2022-10-26T07:00:59;98709.16;;;11.27;71.65
39487;BME280;25173;50.430;18.926;2022-10-26T07:04:00;98719.59;;;11.41;71.85
39487;BME280;25173;50.430;18.926;2022-10-26T07:07:01;98724.81;;;11.57;71.84
39487;BME280;25173;50.430;18.926;2022-10-26T07:10:01;98721.91;;;11.69;71.71
39487;BME280;25173;50.430;18.926;2022-10-26T07:13:02;98720.28;;;11.78;71.62
39487;BME280;25173;50.430;18.926;2022-10-26T07:16:02;98725.53;;;11.90;71.67
39487;BME280;25173;50.430;18.926;2022-10-26T07:19:03;98724.75;;;12.04;71.75
39487;BME280;25173;50.430;18.926;2022-10-26T07:22:04;98728.34;;;12.20;71.63
39487;BME280;25173;50.430;18.926;2022-10-26T07:25:05;98722.59;;;12.32;71.74
39487;BME280;25173;50.430;18.926;2022-10-26T08:00:35;98734.38;;;13.93;76.05
39487;BME280;25173;50.430;18.926;2022-10-26T08:03:36;98738.59;;;14.19;75.35
39487;BME280;25173;50.430;18.926;2022-10-26T08:06:37;98732.72;;;14.41;75.10
39487;BME280;25173;50.430;18.926;2022-10-26T08:09:38;98731.22;;;14.59;74.69
39487;BME280;25173;50.430;18.926;2022-10-26T08:12:39;98745.31;;;14.76;74.52
39487;BME280;25173;50.430;18.926;2022-10-26T08:15:40;98740.78;;;14.95;74.32
39487;BME280;25173;50.430;18.926;2022-10-26T08:18:41;98743.03;;;15.17;74.43
39487;BME280;25173;50.430;18.926;2022-10-26T08:21:41;98732.72;;;15.33;74.13
39487;BME280;25173;50.430;18.926;2022-10-26T08:24:42;98733.94;;;15.45;73.62
39487;BME280;25173;50.430;18.926;2022-10-26T08:27:46;98729.50;;;15.55;73.27
39487;BME280;25173;50.430;18.926;2022-10-26T08:30:46;98723.34;;;15.63;72.87
39487;BME280;25173;50.430;18.926;2022-10-26T08:33:47;98730.69;;;15.67;72.40
39487;BME280;25173;50.430;18.926;2022-10-26T08:36:48;98731.16;;;15.74;72.29
39487;BME280;25173;50.430;18.926;2022-10-26T08:39:49;98727.75;;;15.82;72.15
39487;BME280;25173;50.430;18.926;2022-10-26T08:42:56;98735.28;;;15.96;72.17
39487;BME280;25173;50.430;18.926;2022-10-26T08:46:12;98726.81;;;16.11;71.85
39487;BME280;25173;50.430;18.926;2022-10-26T08:49:31;98731.59;;;16.24;71.45
39487;BME280;25173;50.430;18.926;2022-10-26T08:56:25;98738.78;;;16.57;71.13
39487;BME280;25173;50.430;18.926;2022-10-26T08:59:39;98733.75;;;16.64;70.74
39487;BME280;25173;50.430;18.926;2022-10-26T09:02:43;98732.56;;;16.71;70.65
39487;BME280;25173;50.430;18.926;2022-10-26T09:05:51;98736.25;;;16.80;70.37
39487;BME280;25173;50.430;18.926;2022-10-26T09:09:03;98728.34;;;16.92;70.02
39487;BME280;25173;50.430;18.926;2022-10-26T09:25:20;98736.19;;;17.31;68.53
39487;BME280;25173;50.430;18.926;2022-10-26T09:28:22;98742.50;;;17.31;68.69
39487;BME280;25173;50.430;18.926;2022-10-26T09:31:24;98748.63;;;17.42;68.71
39487;BME280;25173;50.430;18.926;2022-10-26T09:34:54;98752.53;;;17.55;67.08
39487;BME280;25173;50.430;18.926;2022-10-26T09:38:07;98742.50;;;17.59;67.57
39487;BME280;25173;50.430;18.926;2022-10-26T09:44:34;98747.16;;;17.77;68.30
39487;BME280;25173;50.430;18.926;2022-10-26T09:47:38;98754.72;;;17.85;67.33
39487;BME280;25173;50.430;18.926;2022-10-26T09:50:46;98758.47;;;17.89;66.69
39487;BME280;25173;50.430;18.926;2022-10-26T09:53:48;98749.25;;;17.94;66.61
39487;BME280;25173;50.430;18.926;2022-10-26T09:56:53;98756.00;;;18.01;67.06
39487;BME280;25173;50.430;18.926;2022-10-26T09:59:54;98751.09;;;18.12;65.48
39487;BME280;25173;50.430;18.926;2022-10-26T10:02:57;98750.66;;;18.18;66.53
39487;BME280;25173;50.430;18.926;2022-10-26T10:06:18;98748.00;;;18.27;64.82
39487;BME280;25173;50.430;18.926;2022-10-26T10:09:21;98743.19;;;18.33;65.56
39487;BME280;25173;50.430;18.926;2022-10-26T10:12:24;98745.81;;;18.38;65.18
39487;BME280;25173;50.430;18.926;2022-10-26T10:15:24;98738.44;;;18.47;65.23
39487;BME280;25173;50.430;18.926;2022-10-26T10:18:25;98739.63;;;18.54;64.45
39487;BME280;25173;50.430;18.926;2022-10-26T10:21:34;98745.25;;;18.63;63.72
39487;BME280;25173;50.430;18.926;2022-10-26T10:24:37;98747.06;;;18.68;63.66
39487;BME280;25173;50.430;18.926;2022-10-26T10:27:52;98741.13;;;18.74;63.64
39487;BME280;25173;50.430;18.926;2022-10-26T10:30:58;98751.84;;;18.76;62.59
39487;BME280;25173;50.430;18.926;2022-10-26T10:33:59;98748.53;;;18.65;62.57
39487;BME280;25173;50.430;18.926;2022-10-26T10:37:00;98751.81;;;18.67;62.97
39487;BME280;25173;50.430;18.926;2022-10-26T10:40:06;98746.53;;;18.79;62.55
39487;BME280;25173;50.430;18.926;2022-10-26T10:43:13;98737.66;;;18.91;61.94
39487;BME280;25173;50.430;18.926;2022-10-26T10:46:22;98738.75;;;19.04;61.79
39487;BME280;25173;50.430;18.926;2022-10-26T10:49:25;98739.78;;;19.16;62.42
39487;BME280;25173;50.430;18.926;2022-10-26T10:52:32;98742.81;;;19.37;61.37
39487;BME280;25173;50.430;18.926;2022-10-26T10:55:33;98738.03;;;19.51;60.90
39487;BME280;25173;50.430;18.926;2022-10-26T11:08:16;98744.56;;;20.03;57.90
39487;BME280;25173;50.430;18.926;2022-10-26T11:11:42;98741.63;;;20.08;57.47
39487;BME280;25173;50.430;18.926;2022-10-26T11:14:49;98748.50;;;20.20;56.97
39487;BME280;25173;50.430;18.926;2022-10-26T11:21:47;98744.91;;;20.19;56.58
39487;BME280;25173;50.430;18.926;2022-10-26T11:25:04;98743.50;;;20.30;56.45
39487;BME280;25173;50.430;18.926;2022-10-26T11:28:24;98745.78;;;20.45;55.04
39487;BME280;25173;50.430;18.926;2022-10-26T11:31:46;98745.16;;;20.48;55.96
39487;BME280;25173;50.430;18.926;2022-10-26T11:34:58;98753.47;;;20.66;55.57
39487;BME280;25173;50.430;18.926;2022-10-26T11:38:04;98749.84;;;20.82;55.23
39487;BME280;25173;50.430;18.926;2022-10-26T11:41:28;98749.34;;;21.06;54.86
39487;BME280;25173;50.430;18.926;2022-10-26T11:44:35;98752.25;;;21.36;54.49
39487;BME280;25173;50.430;18.926;2022-10-26T11:47:45;98749.72;;;21.60;53.67
39487;BME280;25173;50.430;18.926;2022-10-26T11:50:51;98751.47;;;21.64;54.19
39487;BME280;25173;50.430;18.926;2022-10-26T11:53:52;98747.13;;;21.63;53.83
39487;BME280;25173;50.430;18.926;2022-10-26T11:56:54;98747.59;;;21.57;53.48
39487;BME280;25173;50.430;18.926;2022-10-26T12:00:07;98747.00;;;21.43;52.66
39487;BME280;25173;50.430;18.926;2022-10-26T12:03:11;98742.50;;;21.21;53.22
39487;BME280;25173;50.430;18.926;2022-10-26T12:06:18;98752.31;;;20.92;52.68
39487;BME280;25173;50.430;18.926;2022-10-26T12:09:24;98742.03;;;20.84;53.04
39487;BME280;25173;50.430;18.926;2022-10-26T12:12:51;98756.56;;;20.73;51.42
39487;BME280;25173;50.430;18.926;2022-10-26T12:19:41;98742.88;;;20.59;52.62
39487;BME280;25173;50.430;18.926;2022-10-26T12:22:45;98746.47;;;20.60;53.68
39487;BME280;25173;50.430;18.926;2022-10-26T12:25:46;98739.13;;;20.64;53.30
39487;BME280;25173;50.430;18.926;2022-10-26T12:28:47;98736.53;;;20.67;53.22
39487;BME280;25173;50.430;18.926;2022-10-26T12:31:47;98742.53;;;20.78;52.72
39487;BME280;25173;50.430;18.926;2022-10-26T12:37:48;98752.31;;;20.84;52.51
39487;BME280;25173;50.430;18.926;2022-10-26T12:41:10;98737.63;;;20.92;51.63
39487;BME280;25173;50.430;18.926;2022-10-26T12:44:36;98744.31;;;20.91;51.93
39487;BME280;25173;50.430;18.926;2022-10-26T12:50:37;98744.81;;;20.76;52.88
39487;BME280;25173;50.430;18.926;2022-10-26T12:53:38;98741.91;;;20.81;52.68
39487;BME280;25173;50.430;18.926;2022-10-26T12:59:58;98726.41;;;21.61;51.87
39487;BME280;25173;50.430;18.926;2022-10-26T13:06:19;98716.81;;;22.17;50.70
39487;BME280;25173;50.430;18.926;2022-10-26T13:09:29;98719.47;;;22.34;49.82
39487;BME280;25173;50.430;18.926;2022-10-26T13:12:44;98722.31;;;22.46;49.97
39487;BME280;25173;50.430;18.926;2022-10-26T13:15:53;98717.91;;;22.25;49.03
39487;BME280;25173;50.430;18.926;2022-10-26T13:18:55;98734.75;;;21.90;49.09
39487;BME280;25173;50.430;18.926;2022-10-26T13:21:58;98738.34;;;21.53;49.89
39487;BME280;25173;50.430;18.926;2022-10-26T13:25:02;98730.75;;;21.33;50.62
39487;BME280;25173;50.430;18.926;2022-10-26T13:34:41;98736.38;;;20.81;51.58
39487;BME280;25173;50.430;18.926;2022-10-26T13:37:47;98738.81;;;20.74;51.09
39487;BME280;25173;50.430;18.926;2022-10-26T13:40:48;98737.34;;;20.59;51.65
39487;BME280;25173;50.430;18.926;2022-10-26T13:43:50;98737.50;;;20.71;51.40
39487;BME280;25173;50.430;18.926;2022-10-26T13:47:15;98738.13;;;21.03;49.63
39487;BME280;25173;50.430;18.926;2022-10-26T13:50:24;98744.31;;;21.25;50.36
39487;BME280;25173;50.430;18.926;2022-10-26T13:53:45;98741.47;;;21.43;49.04
39487;BME280;25173;50.430;18.926;2022-10-26T13:57:04;98742.75;;;21.54;49.11
39487;BME280;25173;50.430;18.926;2022-10-26T14:00:19;98741.69;;;21.67;48.51
39487;BME280;25173;50.430;18.926;2022-10-26T14:03:20;98742.81;;;21.75;49.06
39487;BME280;25173;50.430;18.926;2022-10-26T14:06:36;98738.38;;;21.82;48.23
39487;BME280;25173;50.430;18.926;2022-10-26T14:09:37;98745.03;;;21.90;48.51
39487;BME280;25173;50.430;18.926;2022-10-26T14:12:38;98741.75;;;21.88;48.62
39487;BME280;25173;50.430;18.926;2022-10-26T14:15:42;98734.44;;;21.83;48.37
39487;BME280;25173;50.430;18.926;2022-10-26T14:18:43;98742.38;;;22.02;48.89
39487;BME280;25173;50.430;18.926;2022-10-26T14:21:44;98735.09;;;22.18;48.42
39487;BME280;25173;50.430;18.926;2022-10-26T14:24:54;98738.69;;;22.19;47.94
39487;BME280;25173;50.430;18.926;2022-10-26T14:27:54;98732.25;;;22.27;47.70
39487;BME280;25173;50.430;18.926;2022-10-26T14:31:20;98729.28;;;22.32;46.23
39487;BME280;25173;50.430;18.926;2022-10-26T14:34:21;98730.69;;;22.17;47.15
39487;BME280;25173;50.430;18.926;2022-10-26T14:40:29;98746.72;;;22.12;47.73
39487;BME280;25173;50.430;18.926;2022-10-26T14:43:30;98751.47;;;22.11;48.03
39487;BME280;25173;50.430;18.926;2022-10-26T14:46:33;98750.66;;;22.11;47.68
39487;BME280;25173;50.430;18.926;2022-10-26T14:49:34;98760.50;;;21.99;47.81
39487;BME280;25173;50.430;18.926;2022-10-26T14:52:35;98755.34;;;21.81;48.14
39487;BME280;25173;50.430;18.926;2022-10-26T14:55:46;98760.47;;;21.61;48.01
39487;BME280;25173;50.430;18.926;2022-10-26T14:58:47;98761.03;;;21.38;48.87
39487;BME280;25173;50.430;18.926;2022-10-26T15:01:57;98756.00;;;21.14;49.16
39487;BME280;25173;50.430;18.926;2022-10-26T15:05:00;98762.91;;;20.82;49.50
39487;BME280;25173;50.430;18.926;2022-10-26T15:08:02;98761.59;;;20.53;50.03
39487;BME280;25173;50.430;18.926;2022-10-26T15:11:06;98758.47;;;20.29;50.43
39487;BME280;25173;50.430;18.926;2022-10-26T15:14:10;98765.03;;;20.02;50.86
39487;BME280;25173;50.430;18.926;2022-10-26T15:17:21;98762.69;;;19.78;51.25
39487;BME280;25173;50.430;18.926;2022-10-26T15:20:24;98766.50;;;19.52;51.67
39487;BME280;25173;50.430;18.926;2022-10-26T15:23:27;98765.81;;;19.24;52.34
39487;BME280;25173;50.430;18.926;2022-10-26T15:26:29;98774.13;;;19.02;52.58
39487;BME280;25173;50.430;18.926;2022-10-26T15:29:44;98778.38;;;18.85;53.12
39487;BME280;25173;50.430;18.926;2022-10-26T15:32:45;98781.00;;;18.68;53.60
39487;BME280;25173;50.430;18.926;2022-10-26T15:35:46;98788.91;;;18.47;53.92
39487;BME280;25173;50.430;18.926;2022-10-26T15:38:47;98789.06;;;18.29;54.32
39487;BME280;25173;50.430;18.926;2022-10-26T15:41:48;98783.56;;;18.15;54.42
39487;BME280;25173;50.430;18.926;2022-10-26T15:44:51;98787.25;;;17.97;54.95
39487;BME280;25173;50.430;18.926;2022-10-26T15:47:53;98786.84;;;17.76;55.37
39487;BME280;25173;50.430;18.926;2022-10-26T15:50:56;98786.41;;;17.55;56.14
39487;BME280;25173;50.430;18.926;2022-10-26T15:53:57;98791.66;;;17.38;56.51
39487;BME280;25173;50.430;18.926;2022-10-26T15:56:58;98799.97;;;17.19;56.75
39487;BME280;25173;50.430;18.926;2022-10-26T15:59:59;98804.41;;;17.01;57.23
39487;BME280;25173;50.430;18.926;2022-10-26T16:03:01;98809.03;;;16.87;57.60
39487;BME280;25173;50.430;18.926;2022-10-26T16:06:02;98802.97;;;16.72;57.95
39487;BME280;25173;50.430;18.926;2022-10-26T16:09:05;98815.75;;;16.62;58.26
39487;BME280;25173;50.430;18.926;2022-10-26T16:12:13;98807.63;;;16.52;58.81
39487;BME280;25173;50.430;18.926;2022-10-26T16:15:18;98800.63;;;16.41;58.74
39487;BME280;25173;50.430;18.926;2022-10-26T16:18:19;98813.38;;;16.32;58.69
39487;BME280;25173;50.430;18.926;2022-10-26T16:21:21;98814.34;;;16.22;58.98
39487;BME280;25173;50.430;18.926;2022-10-26T16:24:22;98813.66;;;16.12;59.10
39487;BME280;25173;50.430;18.926;2022-10-26T16:27:23;98815.41;;;16.03;59.08
39487;BME280;25173;50.430;18.926;2022-10-26T16:30:23;98818.81;;;15.95;59.33
39487;BME280;25173;50.430;18.926;2022-10-26T16:33:24;98811.22;;;15.86;59.56
39487;BME280;25173;50.430;18.926;2022-10-26T16:36:25;98823.97;;;15.77;59.74
39487;BME280;25173;50.430;18.926;2022-10-26T16:39:25;98822.69;;;15.70;59.78
39487;BME280;25173;50.430;18.926;2022-10-26T16:42:26;98823.59;;;15.60;60.09
39487;BME280;25173;50.430;18.926;2022-10-26T16:45:27;98821.50;;;15.47;60.29
39487;BME280;25173;50.430;18.926;2022-10-26T16:48:28;98823.31;;;15.33;60.56
39487;BME280;25173;50.430;18.926;2022-10-26T16:51:29;98823.38;;;15.23;60.81
39487;BME280;25173;50.430;18.926;2022-10-26T16:54:29;98830.31;;;15.15;60.77
39487;BME280;25173;50.430;18.926;2022-10-26T16:57:30;98831.75;;;15.07;61.14
39487;BME280;25173;50.430;18.926;2022-10-26T17:00:33;98828.50;;;15.00;61.10
39487;BME280;25173;50.430;18.926;2022-10-26T17:03:35;98833.25;;;14.90;61.14
39487;BME280;25173;50.430;18.926;2022-10-26T17:06:35;98839.34;;;14.82;61.26
39487;BME280;25173;50.430;18.926;2022-10-26T17:09:36;98835.56;;;14.72;61.40
39487;BME280;25173;50.430;18.926;2022-10-26T17:12:37;98839.22;;;14.58;61.81
39487;BME280;25173;50.430;18.926;2022-10-26T17:15:37;98845.34;;;14.45;62.12
39487;BME280;25173;50.430;18.926;2022-10-26T17:18:39;98844.25;;;14.35;62.30
39487;BME280;25173;50.430;18.926;2022-10-26T17:21:40;98850.88;;;14.24;62.53
39487;BME280;25173;50.430;18.926;2022-10-26T17:24:42;98860.53;;;14.12;62.75
39487;BME280;25173;50.430;18.926;2022-10-26T17:27:43;98858.66;;;13.97;62.83
39487;BME280;25173;50.430;18.926;2022-10-26T17:30:44;98861.41;;;13.87;63.26
39487;BME280;25173;50.430;18.926;2022-10-26T17:33:45;98863.13;;;13.78;63.44
39487;BME280;25173;50.430;18.926;2022-10-26T17:36:49;98868.31;;;13.74;63.05
39487;BME280;25173;50.430;18.926;2022-10-26T17:39:50;98866.69;;;13.68;63.24
39487;BME280;25173;50.430;18.926;2022-10-26T17:42:50;98876.81;;;13.63;63.24
39487;BME280;25173;50.430;18.926;2022-10-26T17:45:51;98876.00;;;13.57;63.45
39487;BME280;25173;50.430;18.926;2022-10-26T17:52:19;98879.59;;;13.47;63.64
39487;BME280;25173;50.430;18.926;2022-10-26T17:55:19;98879.84;;;13.46;63.61
39487;BME280;25173;50.430;18.926;2022-10-26T17:58:20;98882.06;;;13.39;63.65
39487;BME280;25173;50.430;18.926;2022-10-26T18:01:21;98889.16;;;13.30;63.76
39487;BME280;25173;50.430;18.926;2022-10-26T18:04:21;98886.69;;;13.23;63.96
39487;BME280;25173;50.430;18.926;2022-10-26T18:07:22;98896.53;;;13.19;63.93
39487;BME280;25173;50.430;18.926;2022-10-26T18:10:23;98906.66;;;13.13;64.06
39487;BME280;25173;50.430;18.926;2022-10-26T18:13:25;98912.91;;;13.09;64.11